Time;durP1;ratioP1;P1;durP2;ratioP2;P2;SDS_P1;SDS_P2;PMS_P1;PMS_P2;Temp;Humidity;BMP_temperature;BMP_pressure;BME280_temperature;BME280_humidity;BME280_pressure;Samples;Min_cycle;Max_cycle;Signal;HPM_P1;HPM_P2
2024/01/09 00:00:58;;;;;;;25.55;3.20;;;;;;;;;;5094598;28;20035;-40
2024/01/09 00:03:25;;;;;;;24.27;3.35;;;;;;;;;;5094379;28;20050;-40
2024/01/09 00:05:52;;;;;;;26.10;3.20;;;;;;;;;;5094053;28;20031;-40
2024/01/09 00:08:19;;;;;;;19.13;3.08;;;;;;;;;;5094371;28;20036;-40
2024/01/09 00:10:46;;;;;;;30.48;3.33;;;;;;;;;;5094487;28;20040;-40
2024/01/09 00:13:13;;;;;;;26.05;3.15;;;;;;;;;;5094626;28;20032;-40
2024/01/09 00:15:40;;;;;;;24.33;3.28;;;;;;;;;;5081525;28;20110;-40
2024/01/09 00:18:07;;;;;;;23.67;3.05;;;;;;;;;;5094397;28;20036;-40
2024/01/09 00:20:34;;;;;;;18.20;3.17;;;;;;;;;;5092809;28;20370;-40
2024/01/09 00:23:01;;;;;;;17.25;3.05;;;;;;;;;;5094321;28;20036;-40
2024/01/09 00:25:28;;;;;;;20.85;3.17;;;;;;;;;;5094033;28;20451;-40
2024/01/09 00:27:55;;;;;;;23.58;2.97;;;;;;;;;;5094297;28;20024;-40
2024/01/09 00:30:22;;;;;;;26.65;3.38;;;;;;;;;;5094239;28;20389;-40
2024/01/09 00:32:49;;;;;;;16.67;3.20;;;;;;;;;;5093999;28;20494;-40
2024/01/09 00:35:16;;;;;;;28.25;3.58;;;;;;;;;;5093653;28;20081;-39
2024/01/09 00:37:43;;;;;;;19.30;3.83;;;;;;;;;;5094083;28;20032;-40
2024/01/09 00:40:10;;;;;;;15.10;3.38;;;;;;;;;;5093483;28;20030;-40
2024/01/09 00:42:37;;;;;;;20.67;3.53;;;;;;;;;;5093852;28;20032;-39
2024/01/09 00:45:05;;;;;;;20.40;3.92;;;;;;;;;;5093499;28;20035;-39
2024/01/09 00:47:32;;;;;;;21.77;4.13;;;;;;;;;;5093820;28;20123;-39
2024/01/09 00:50:00;;;;;;;20.42;3.33;;;;;;;;;;5093488;28;20390;-39
2024/01/09 00:52:27;;;;;;;12.52;3.40;;;;;;;;;;5093763;28;20027;-40
2024/01/09 00:54:54;;;;;;;15.88;2.75;;;;;;;;;;5093317;28;20489;-40
2024/01/09 00:57:21;;;;;;;17.05;3.08;;;;;;;;;;5093657;28;20401;-40
2024/01/09 00:59:48;;;;;;;11.10;2.95;;;;;;;;;;5093620;28;20051;-40
2024/01/09 01:02:15;;;;;;;15.98;2.63;;;;;;;;;;5093476;28;20040;-40
2024/01/09 01:04:42;;;;;;;16.00;3.05;;;;;;;;;;5093146;28;20039;-40
2024/01/09 01:07:09;;;;;;;14.55;2.67;;;;;;;;;;5093364;28;20114;-40
2024/01/09 01:09:36;;;;;;;12.73;2.65;;;;;;;;;;5092820;28;20016;-40
2024/01/09 01:12:03;;;;;;;12.43;2.63;;;;;;;;;;5093268;28;20035;-40
2024/01/09 01:14:30;;;;;;;18.67;2.45;;;;;;;;;;5093121;28;20024;-39
2024/01/09 01:16:57;;;;;;;15.23;2.47;;;;;;;;;;5092644;28;20024;-40
2024/01/09 01:19:23;;;;;;;13.57;2.42;;;;;;;;;;5092628;28;20036;-40
2024/01/09 01:21:50;;;;;;;12.23;2.13;;;;;;;;;;5092351;28;20042;-40
2024/01/09 01:24:18;;;;;;;9.80;1.80;;;;;;;;;;5093011;28;20039;-39
2024/01/09 01:26:45;;;;;;;13.00;2.10;;;;;;;;;;5092649;28;20036;-40
2024/01/09 01:29:12;;;;;;;15.40;2.47;;;;;;;;;;5092899;28;20040;-40
2024/01/09 01:31:39;;;;;;;13.82;2.28;;;;;;;;;;5092828;28;20520;-39
2024/01/09 01:34:06;;;;;;;17.17;3.00;;;;;;;;;;5092443;28;20028;-40
2024/01/09 01:36:33;;;;;;;16.13;2.38;;;;;;;;;;5092391;28;20118;-40
2024/01/09 01:39:00;;;;;;;17.40;2.95;;;;;;;;;;5092597;28;20120;-40
2024/01/09 01:41:27;;;;;;;17.73;3.88;;;;;;;;;;5092560;28;20089;-40
2024/01/09 01:43:54;;;;;;;22.98;6.05;;;;;;;;;;5092459;28;20036;-39
2024/01/09 01:46:21;;;;;;;33.97;7.00;;;;;;;;;;5091882;28;20105;-40
2024/01/09 01:48:48;;;;;;;31.63;6.63;;;;;;;;;;5092070;28;20028;-39
2024/01/09 01:51:15;;;;;;;39.58;6.93;;;;;;;;;;5092148;28;20036;-41
2024/01/09 01:53:43;;;;;;;28.77;6.03;;;;;;;;;;5092117;28;20032;-40
2024/01/09 01:56:10;;;;;;;27.90;6.05;;;;;;;;;;5092352;28;20043;-40
2024/01/09 01:58:37;;;;;;;28.08;6.00;;;;;;;;;;5091088;28;20066;-39
2024/01/09 02:01:04;;;;;;;31.50;6.38;;;;;;;;;;5091784;28;20136;-40
2024/01/09 02:03:31;;;;;;;31.67;6.45;;;;;;;;;;5092322;28;20039;-40
2024/01/09 02:05:59;;;;;;;25.27;6.13;;;;;;;;;;5092232;28;20024;-40
2024/01/09 02:08:28;;;;;;;18.38;6.10;;;;;;;;;;5092016;28;20027;-40
2024/01/09 02:10:55;;;;;;;30.65;6.72;;;;;;;;;;5089400;28;20039;-41
2024/01/09 02:13:22;;;;;;;29.23;6.85;;;;;;;;;;5090752;28;20020;-41
2024/01/09 02:15:49;;;;;;;43.22;7.03;;;;;;;;;;5091820;28;20031;-39
2024/01/09 02:18:16;;;;;;;36.92;5.95;;;;;;;;;;5091793;28;20411;-41
2024/01/09 02:20:43;;;;;;;28.10;6.35;;;;;;;;;;5091903;28;20389;-40
2024/01/09 02:23:10;;;;;;;20.88;5.28;;;;;;;;;;5091636;28;20115;-41
2024/01/09 02:25:37;;;;;;;22.33;5.47;;;;;;;;;;5091582;28;20044;-40
2024/01/09 02:28:16;;;;;;;23.50;6.15;;;;;;;;;;5091556;28;20093;-43
2024/01/09 02:30:43;;;;;;;23.48;4.65;;;;;;;;;;5084776;28;20093;-42
2024/01/09 02:33:10;;;;;;;20.55;4.47;;;;;;;;;;5091561;28;20039;-40
2024/01/09 02:35:37;;;;;;;31.38;6.00;;;;;;;;;;5091529;28;20073;-39
2024/01/09 02:38:04;;;;;;;26.10;5.60;;;;;;;;;;5083186;28;20445;-40
2024/01/09 02:40:32;;;;;;;22.95;5.00;;;;;;;;;;5091009;28;20024;-42
2024/01/09 02:42:59;;;;;;;24.63;5.35;;;;;;;;;;5090557;28;20043;-41
2024/01/09 02:45:26;;;;;;;19.55;4.85;;;;;;;;;;5090691;28;20031;-39
2024/01/09 02:47:53;;;;;;;22.08;5.07;;;;;;;;;;5091182;28;20032;-39
2024/01/09 02:50:20;;;;;;;20.88;4.47;;;;;;;;;;5090793;28;20067;-37
2024/01/09 02:52:47;;;;;;;24.00;4.50;;;;;;;;;;5091232;28;20386;-39
2024/01/09 02:55:14;;;;;;;21.33;4.13;;;;;;;;;;5091489;28;20057;-41
2024/01/09 02:57:41;;;;;;;14.13;3.78;;;;;;;;;;5090342;28;20036;-39
2024/01/09 03:00:10;;;;;;;13.70;4.00;;;;;;;;;;5090903;28;20056;-39
2024/01/09 03:02:37;;;;;;;15.35;3.33;;;;;;;;;;5090734;28;20033;-39
2024/01/09 03:05:07;;;;;;;13.23;3.28;;;;;;;;;;5091305;28;20031;-43
2024/01/09 03:07:37;;;;;;;17.10;3.83;;;;;;;;;;5084641;28;20057;-42
2024/01/09 03:10:04;;;;;;;8.85;2.90;;;;;;;;;;5091202;28;20036;-41
2024/01/09 03:12:31;;;;;;;12.65;2.88;;;;;;;;;;5091084;28;20036;-39
2024/01/09 03:14:58;;;;;;;11.18;2.95;;;;;;;;;;5091057;28;20027;-43
2024/01/09 03:17:25;;;;;;;13.55;2.83;;;;;;;;;;5089079;28;20035;-40
2024/01/09 03:19:52;;;;;;;15.45;2.63;;;;;;;;;;5079435;28;20143;-43
2024/01/09 03:22:19;;;;;;;8.52;2.40;;;;;;;;;;5090663;28;20495;-40
2024/01/09 03:24:46;;;;;;;13.68;3.40;;;;;;;;;;5089801;28;20488;-41
2024/01/09 03:27:12;;;;;;;13.85;2.50;;;;;;;;;;5090905;28;20515;-39
2024/01/09 03:29:40;;;;;;;14.32;2.60;;;;;;;;;;5091068;28;20514;-41
2024/01/09 03:32:08;;;;;;;12.98;2.72;;;;;;;;;;5090534;28;20028;-40
2024/01/09 03:34:35;;;;;;;13.10;2.67;;;;;;;;;;5090601;28;20039;-39
2024/01/09 03:37:02;;;;;;;9.00;2.67;;;;;;;;;;5090657;28;20028;-40
2024/01/09 03:39:30;;;;;;;9.23;2.40;;;;;;;;;;5090762;28;20031;-40
2024/01/09 03:41:57;;;;;;;9.55;2.45;;;;;;;;;;5090856;28;20056;-40
2024/01/09 03:44:25;;;;;;;10.48;2.80;;;;;;;;;;5090747;28;20035;-42
2024/01/09 03:46:52;;;;;;;13.13;2.78;;;;;;;;;;5084052;28;20062;-46
2024/01/09 03:49:19;;;;;;;13.27;2.65;;;;;;;;;;5084091;28;20036;-41
2024/01/09 03:51:46;;;;;;;11.32;2.45;;;;;;;;;;5090706;28;20024;-43
2024/01/09 03:54:13;;;;;;;13.52;2.60;;;;;;;;;;5090558;28;20028;-40
2024/01/09 03:56:40;;;;;;;20.60;3.13;;;;;;;;;;5090785;28;20119;-43
2024/01/09 03:59:08;;;;;;;9.82;2.33;;;;;;;;;;5090540;28;20039;-40
2024/01/09 04:01:35;;;;;;;11.07;2.25;;;;;;;;;;5090567;28;20085;-43
2024/01/09 04:04:02;;;;;;;12.25;2.03;;;;;;;;;;5090490;28;20040;-43
2024/01/09 04:06:30;;;;;;;10.43;2.58;;;;;;;;;;5090660;28;20032;-39
2024/01/09 04:08:57;;;;;;;11.07;2.20;;;;;;;;;;5090583;28;20032;-43
2024/01/09 04:11:24;;;;;;;7.30;2.00;;;;;;;;;;5093507;28;20481;-40
2024/01/09 04:13:51;;;;;;;9.05;2.20;;;;;;;;;;5089447;28;20093;-41
2024/01/09 04:16:19;;;;;;;10.60;2.00;;;;;;;;;;5093852;28;20110;-41
2024/01/09 04:18:46;;;;;;;11.38;2.22;;;;;;;;;;5094398;28;20485;-43
2024/01/09 04:21:13;;;;;;;13.00;2.50;;;;;;;;;;5092645;28;20470;-42
2024/01/09 04:23:40;;;;;;;14.27;2.55;;;;;;;;;;5093725;28;20424;-42
2024/01/09 04:26:08;;;;;;;15.13;2.70;;;;;;;;;;5093779;28;20089;-41
2024/01/09 04:28:35;;;;;;;10.50;2.65;;;;;;;;;;5094216;28;20030;-41
2024/01/09 04:31:02;;;;;;;8.50;2.75;;;;;;;;;;5089073;28;20056;-44
2024/01/09 04:33:29;;;;;;;13.10;2.60;;;;;;;;;;5091006;28;20093;-43
2024/01/09 04:35:56;;;;;;;11.98;3.08;;;;;;;;;;5094068;28;20363;-43
2024/01/09 04:38:23;;;;;;;13.57;2.67;;;;;;;;;;5091884;28;20517;-42
2024/01/09 04:40:50;;;;;;;13.55;2.78;;;;;;;;;;5094138;28;20037;-41
2024/01/09 04:43:17;;;;;;;12.15;2.50;;;;;;;;;;5093598;28;20028;-39
2024/01/09 04:45:44;;;;;;;9.85;3.03;;;;;;;;;;5094008;28;20052;-40
2024/01/09 04:48:10;;;;;;;9.10;2.67;;;;;;;;;;5094049;28;20051;-41
2024/01/09 04:50:37;;;;;;;9.25;2.30;;;;;;;;;;5093970;28;20543;-38
2024/01/09 04:53:04;;;;;;;16.95;2.90;;;;;;;;;;5093549;28;20028;-38
2024/01/09 04:55:31;;;;;;;11.10;2.45;;;;;;;;;;5093830;28;20025;-39
2024/01/09 04:57:58;;;;;;;9.90;2.42;;;;;;;;;;5093698;28;20024;-39
2024/01/09 05:00:25;;;;;;;8.63;2.55;;;;;;;;;;5093696;28;20024;-41
2024/01/09 05:02:53;;;;;;;9.18;2.58;;;;;;;;;;5093246;28;20040;-39
2024/01/09 05:05:20;;;;;;;9.70;2.00;;;;;;;;;;5093573;28;20032;-39
2024/01/09 05:07:47;;;;;;;13.07;1.90;;;;;;;;;;5093597;28;20027;-38
2024/01/09 05:10:13;;;;;;;13.23;2.03;;;;;;;;;;5093519;28;20030;-39
2024/01/09 05:12:40;;;;;;;8.68;1.60;;;;;;;;;;5093115;28;20032;-43
2024/01/09 05:15:08;;;;;;;10.23;1.70;;;;;;;;;;5073217;28;20024;-41
2024/01/09 05:17:35;;;;;;;7.07;1.63;;;;;;;;;;5072925;28;20067;-42
2024/01/09 05:20:03;;;;;;;6.63;1.38;;;;;;;;;;5073001;28;20390;-44
2024/01/09 05:22:30;;;;;;;10.35;1.73;;;;;;;;;;5071796;28;20049;-43
2024/01/09 05:24:56;;;;;;;5.95;1.13;;;;;;;;;;5088327;28;20049;-39
2024/01/09 05:27:23;;;;;;;6.53;1.95;;;;;;;;;;5072972;28;20017;-39
2024/01/09 05:29:50;;;;;;;7.88;1.55;;;;;;;;;;5072926;28;20382;-41
2024/01/09 05:32:17;;;;;;;6.80;1.52;;;;;;;;;;5072410;28;20028;-41
2024/01/09 05:34:44;;;;;;;8.52;1.17;;;;;;;;;;5072664;28;20031;-40
2024/01/09 05:37:11;;;;;;;6.65;1.48;;;;;;;;;;5072772;28;20021;-41
2024/01/09 05:39:38;;;;;;;5.50;1.13;;;;;;;;;;5072427;28;20047;-41
2024/01/09 05:42:05;;;;;;;5.93;1.15;;;;;;;;;;5072448;28;20068;-43
2024/01/09 05:44:32;;;;;;;7.05;1.20;;;;;;;;;;5072574;28;20109;-41
2024/01/09 05:46:59;;;;;;;3.85;0.90;;;;;;;;;;5072606;28;20024;-42
2024/01/09 05:49:26;;;;;;;4.35;1.08;;;;;;;;;;5072309;28;20020;-41
2024/01/09 05:51:53;;;;;;;5.63;0.80;;;;;;;;;;5072466;28;20024;-41
2024/01/09 05:54:20;;;;;;;3.88;0.60;;;;;;;;;;5072364;28;20021;-40
2024/01/09 05:56:47;;;;;;;2.67;0.80;;;;;;;;;;5072369;28;20028;-40
2024/01/09 05:59:14;;;;;;;2.88;0.80;;;;;;;;;;5072494;28;20025;-42
2024/01/09 06:01:42;;;;;;;5.03;0.93;;;;;;;;;;5078802;28;20040;-47
2024/01/09 06:04:09;;;;;;;3.25;0.60;;;;;;;;;;5092558;28;20031;-46
2024/01/09 06:06:36;;;;;;;2.70;0.77;;;;;;;;;;5092539;28;20440;-40
2024/01/09 06:09:03;;;;;;;6.38;0.70;;;;;;;;;;5092359;28;20042;-46
2024/01/09 06:11:30;;;;;;;3.58;0.80;;;;;;;;;;5092370;28;20028;-41
2024/01/09 06:13:57;;;;;;;5.45;0.73;;;;;;;;;;5092294;28;20027;-41
2024/01/09 06:16:24;;;;;;;3.88;0.70;;;;;;;;;;5092549;28;20021;-44
2024/01/09 06:18:51;;;;;;;3.20;0.68;;;;;;;;;;5092336;28;20098;-44
2024/01/09 06:21:18;;;;;;;3.42;0.65;;;;;;;;;;5092225;28;20460;-44
2024/01/09 06:23:47;;;;;;;3.40;0.57;;;;;;;;;;5092202;28;20513;-44
2024/01/09 06:26:14;;;;;;;2.95;0.50;;;;;;;;;;5091639;28;20048;-41
2024/01/09 06:28:43;;;;;;;7.10;0.68;;;;;;;;;;5092201;28;20032;-39
2024/01/09 06:31:10;;;;;;;6.43;0.98;;;;;;;;;;5091993;28;20031;-40
2024/01/09 06:33:37;;;;;;;3.83;0.80;;;;;;;;;;5091730;28;20413;-40
2024/01/09 06:36:04;;;;;;;3.13;0.40;;;;;;;;;;5091929;28;20614;-40
2024/01/09 06:38:31;;;;;;;2.33;0.60;;;;;;;;;;5092028;28;20209;-39
2024/01/09 06:40:59;;;;;;;1.98;0.70;;;;;;;;;;5092029;28;20035;-40
2024/01/09 06:43:26;;;;;;;2.67;0.50;;;;;;;;;;5090401;28;20036;-46
2024/01/09 06:45:52;;;;;;;2.38;0.70;;;;;;;;;;5091805;28;20473;-42
2024/01/09 06:48:19;;;;;;;2.38;0.68;;;;;;;;;;5091948;28;20024;-45
2024/01/09 06:50:46;;;;;;;3.08;0.80;;;;;;;;;;5091812;28;20073;-44
2024/01/09 06:53:13;;;;;;;4.28;1.20;;;;;;;;;;5091718;28;20027;-41
2024/01/09 06:55:40;;;;;;;2.75;1.10;;;;;;;;;;5091727;28;20070;-40
2024/01/09 06:58:07;;;;;;;2.90;1.00;;;;;;;;;;5091738;28;20020;-42
2024/01/09 07:00:34;;;;;;;6.22;0.90;;;;;;;;;;5091616;28;20791;-41
2024/01/09 07:03:01;;;;;;;5.78;0.63;;;;;;;;;;5091599;28;20028;-39
2024/01/09 07:05:28;;;;;;;3.33;0.80;;;;;;;;;;5091661;28;20027;-43
2024/01/09 07:07:55;;;;;;;3.05;0.70;;;;;;;;;;5091642;28;20031;-41
2024/01/09 07:10:22;;;;;;;1.73;0.60;;;;;;;;;;5091708;28;20476;-42
2024/01/09 07:12:49;;;;;;;2.22;0.60;;;;;;;;;;5091564;28;20028;-43
2024/01/09 07:15:16;;;;;;;3.35;0.65;;;;;;;;;;5091611;28;20073;-42
2024/01/09 07:17:44;;;;;;;1.65;0.55;;;;;;;;;;5091470;28;20100;-43
2024/01/09 07:20:11;;;;;;;4.63;0.93;;;;;;;;;;5091495;28;20028;-50
2024/01/09 07:22:38;;;;;;;1.98;0.70;;;;;;;;;;5074023;28;20124;-50
2024/01/09 07:25:06;;;;;;;1.05;0.40;;;;;;;;;;5071100;28;20052;-45
2024/01/09 07:27:32;;;;;;;1.77;0.77;;;;;;;;;;5071327;28;20055;-50
2024/01/09 07:30:00;;;;;;;5.25;0.68;;;;;;;;;;5071249;28;20040;-46
2024/01/09 07:32:27;;;;;;;1.80;0.68;;;;;;;;;;5071034;28;20036;-43
2024/01/09 07:34:54;;;;;;;4.07;0.80;;;;;;;;;;5071288;28;20048;-47
2024/01/09 07:37:22;;;;;;;1.38;0.52;;;;;;;;;;5071205;28;20028;-45
2024/01/09 07:39:49;;;;;;;3.15;0.70;;;;;;;;;;5071031;28;20042;-44
2024/01/09 07:42:17;;;;;;;2.00;0.50;;;;;;;;;;5071027;28;20111;-47
2024/01/09 07:44:43;;;;;;;4.05;0.80;;;;;;;;;;5071828;28;20024;-38
2024/01/09 07:47:11;;;;;;;0.98;0.40;;;;;;;;;;5075036;28;20171;-42
2024/01/09 07:49:38;;;;;;;3.15;0.60;;;;;;;;;;5074826;28;20063;-45
2024/01/09 07:52:06;;;;;;;4.43;0.75;;;;;;;;;;5074725;28;20035;-40
2024/01/09 07:54:33;;;;;;;3.80;0.43;;;;;;;;;;5074891;28;20382;-40
2024/01/09 07:57:00;;;;;;;1.00;0.50;;;;;;;;;;5074722;28;20024;-43
2024/01/09 07:59:27;;;;;;;1.13;0.50;;;;;;;;;;5074729;28;20047;-42
2024/01/09 08:01:57;;;;;;;2.42;0.60;;;;;;;;;;5074383;28;20496;-42
2024/01/09 08:04:24;;;;;;;1.27;0.50;;;;;;;;;;5074655;28;20116;-45
2024/01/09 08:06:51;;;;;;;2.25;0.52;;;;;;;;;;5074598;28;20382;-46
2024/01/09 08:09:27;;;;;;;1.95;0.40;;;;;;;;;;5074482;28;20020;-43
2024/01/09 08:11:54;;;;;;;2.90;0.93;;;;;;;;;;5074316;28;20237;-44
2024/01/09 08:14:21;;;;;;;8.40;0.80;;;;;;;;;;5074480;28;20016;-42
2024/01/09 08:16:48;;;;;;;7.47;0.95;;;;;;;;;;5074398;28;20744;-41
2024/01/09 08:19:16;;;;;;;9.05;1.30;;;;;;;;;;5073040;28;20386;-47
2024/01/09 08:21:43;;;;;;;3.50;0.90;;;;;;;;;;5074196;28;20475;-41
2024/01/09 08:24:18;;;;;;;6.80;0.90;;;;;;;;;;5073987;28;20398;-44
2024/01/09 08:26:48;;;;;;;2.78;0.60;;;;;;;;;;5073898;28;20388;-44
2024/01/09 08:29:18;;;;;;;3.22;0.60;;;;;;;;;;5074177;28;20033;-46
2024/01/09 08:31:45;;;;;;;3.22;0.60;;;;;;;;;;5064023;28;20040;-43
2024/01/09 08:34:13;;;;;;;3.47;0.73;;;;;;;;;;5054080;28;20029;-42
2024/01/09 08:36:43;;;;;;;1.77;0.45;;;;;;;;;;5053993;28;20021;-42
2024/01/09 08:39:16;;;;;;;2.22;0.70;;;;;;;;;;5062661;28;20021;-42
2024/01/09 08:41:43;;;;;;;1.17;0.60;;;;;;;;;;5074018;28;20060;-42
2024/01/09 08:44:10;;;;;;;5.20;0.70;;;;;;;;;;5073935;28;20025;-42
2024/01/09 08:46:37;;;;;;;1.23;0.60;;;;;;;;;;5073704;28;20099;-42
2024/01/09 08:49:05;;;;;;;3.83;0.80;;;;;;;;;;5073962;28;20107;-42
2024/01/09 08:51:32;;;;;;;4.30;0.70;;;;;;;;;;5073764;28;20028;-42
2024/01/09 08:53:59;;;;;;;1.65;0.70;;;;;;;;;;5073632;28;20082;-42
2024/01/09 08:56:26;;;;;;;3.53;0.85;;;;;;;;;;5073667;28;20104;-43
2024/01/09 08:58:53;;;;;;;3.92;0.90;;;;;;;;;;5073518;28;20100;-44
2024/01/09 09:01:20;;;;;;;3.35;0.70;;;;;;;;;;5073841;28;20024;-42
2024/01/09 09:03:48;;;;;;;2.75;0.95;;;;;;;;;;5073461;28;20039;-42
2024/01/09 09:06:16;;;;;;;4.75;1.20;;;;;;;;;;5073443;28;20107;-42
2024/01/09 09:08:43;;;;;;;7.05;1.50;;;;;;;;;;5073399;28;20038;-44
2024/01/09 09:11:14;;;;;;;9.88;1.52;;;;;;;;;;5073363;28;20028;-42
2024/01/09 09:13:42;;;;;;;10.00;1.40;;;;;;;;;;5073214;28;20064;-42
2024/01/09 09:16:09;;;;;;;12.65;1.48;;;;;;;;;;5073357;28;20255;-42
2024/01/09 09:18:36;;;;;;;6.18;1.25;;;;;;;;;;5073326;28;20024;-43
2024/01/09 09:21:03;;;;;;;8.05;0.80;;;;;;;;;;5073175;28;20017;-41
2024/01/09 09:23:31;;;;;;;7.00;0.75;;;;;;;;;;5079630;28;20036;-42
2024/01/09 09:25:57;;;;;;;4.38;1.00;;;;;;;;;;5093163;28;20131;-43
2024/01/09 09:28:25;;;;;;;6.20;1.13;;;;;;;;;;5093355;28;20024;-42
2024/01/09 09:30:53;;;;;;;6.80;1.20;;;;;;;;;;5086279;28;20021;-42
2024/01/09 09:33:20;;;;;;;6.72;1.02;;;;;;;;;;5072180;28;20036;-42
2024/01/09 09:35:47;;;;;;;4.72;0.90;;;;;;;;;;5072248;28;20016;-42
2024/01/09 09:38:15;;;;;;;7.28;1.27;;;;;;;;;;5072223;28;20025;-41
2024/01/09 09:40:42;;;;;;;9.05;1.30;;;;;;;;;;5072499;28;20397;-41
2024/01/09 09:43:15;;;;;;;9.88;1.40;;;;;;;;;;5071928;28;20222;-45
2024/01/09 09:45:44;;;;;;;12.95;2.10;;;;;;;;;;5072045;28;20033;-43
2024/01/09 09:48:12;;;;;;;8.27;2.03;;;;;;;;;;5072532;28;20494;-44
2024/01/09 09:50:39;;;;;;;9.32;2.42;;;;;;;;;;5072772;28;20036;-43
2024/01/09 09:53:06;;;;;;;8.80;1.85;;;;;;;;;;5072468;28;20056;-44
2024/01/09 09:55:34;;;;;;;3.90;1.45;;;;;;;;;;5072305;28;20036;-44
2024/01/09 09:58:01;;;;;;;4.60;1.70;;;;;;;;;;5072419;28;20021;-44
2024/01/09 10:00:28;;;;;;;10.18;1.40;;;;;;;;;;5072523;28;20474;-44
2024/01/09 10:02:59;;;;;;;11.15;1.70;;;;;;;;;;5072248;28;20124;-44
2024/01/09 10:05:27;;;;;;;10.95;1.50;;;;;;;;;;5072138;28;20025;-44
2024/01/09 10:07:54;;;;;;;7.82;1.70;;;;;;;;;;5071752;28;20386;-44
2024/01/09 10:10:21;;;;;;;5.82;1.60;;;;;;;;;;5071932;28;20029;-44
2024/01/09 10:12:49;;;;;;;7.95;1.77;;;;;;;;;;5072227;28;20063;-44
2024/01/09 10:15:17;;;;;;;12.07;2.03;;;;;;;;;;5072257;28;20021;-44
2024/01/09 10:17:44;;;;;;;13.85;2.33;;;;;;;;;;5072048;28;20503;-44
2024/01/09 10:20:13;;;;;;;19.13;2.85;;;;;;;;;;5071979;28;20457;-45
2024/01/09 10:22:40;;;;;;;8.30;2.67;;;;;;;;;;5071788;28;20028;-45
2024/01/09 10:25:08;;;;;;;13.60;2.90;;;;;;;;;;5071827;28;20052;-45
2024/01/09 10:27:38;;;;;;;13.98;3.03;;;;;;;;;;5072075;28;20042;-44
2024/01/09 10:30:06;;;;;;;12.57;2.90;;;;;;;;;;5071928;28;20025;-44
2024/01/09 10:32:33;;;;;;;9.75;2.20;;;;;;;;;;5071838;28;20032;-45
2024/01/09 10:35:03;;;;;;;14.80;2.60;;;;;;;;;;5071764;28;20104;-44
2024/01/09 10:37:34;;;;;;;13.68;3.22;;;;;;;;;;5071803;28;20028;-45
2024/01/09 10:40:04;;;;;;;15.30;3.15;;;;;;;;;;5071760;28;20032;-46
2024/01/09 10:42:31;;;;;;;17.63;3.58;;;;;;;;;;5071011;28;20044;-44
2024/01/09 10:44:58;;;;;;;30.90;3.63;;;;;;;;;;5071757;28;20027;-44
2024/01/09 10:47:27;;;;;;;19.83;3.47;;;;;;;;;;5071658;28;20043;-44
2024/01/09 10:49:54;;;;;;;12.35;3.05;;;;;;;;;;5071683;28;20632;-45
2024/01/09 10:52:22;;;;;;;15.68;3.00;;;;;;;;;;5071572;28;20032;-44
2024/01/09 10:54:49;;;;;;;15.00;2.30;;;;;;;;;;5071532;28;20020;-44
2024/01/09 10:57:16;;;;;;;5.57;1.63;;;;;;;;;;5071677;28;20028;-45
2024/01/09 10:59:48;;;;;;;9.65;1.55;;;;;;;;;;5071619;28;20056;-46
2024/01/09 11:02:25;;;;;;;4.55;1.30;;;;;;;;;;5071424;28;20041;-44
2024/01/09 11:04:52;;;;;;;6.47;1.13;;;;;;;;;;5071546;28;20134;-46
2024/01/09 11:07:19;;;;;;;4.82;1.15;;;;;;;;;;5071547;28;20475;-44
2024/01/09 11:09:47;;;;;;;9.43;1.23;;;;;;;;;;5071528;28;20485;-44
2024/01/09 11:12:25;;;;;;;7.25;1.30;;;;;;;;;;5071324;28;20444;-44
2024/01/09 11:15:12;;;;;;;9.77;1.15;;;;;;;;;;5071442;28;20044;-47
2024/01/09 11:17:41;;;;;;;4.07;0.90;;;;;;;;;;5071291;28;20482;-48
2024/01/09 11:20:09;;;;;;;4.70;1.02;;;;;;;;;;5072853;28;20102;-49
2024/01/09 11:22:36;;;;;;;3.92;0.70;;;;;;;;;;5075224;28;20033;-44
2024/01/09 11:25:10;;;;;;;3.70;0.60;;;;;;;;;;5074873;28;20421;-48
2024/01/09 11:27:46;;;;;;;6.32;0.80;;;;;;;;;;5073593;28;20016;-44
2024/01/09 11:30:14;;;;;;;4.65;0.77;;;;;;;;;;5073984;28;20033;-46
2024/01/09 11:32:41;;;;;;;4.00;0.50;;;;;;;;;;5073792;28;20512;-44
2024/01/09 11:35:12;;;;;;;2.03;0.55;;;;;;;;;;5073963;28;20409;-45
2024/01/09 11:37:40;;;;;;;4.30;0.70;;;;;;;;;;5073754;28;20108;-44
2024/01/09 11:40:11;;;;;;;2.78;0.60;;;;;;;;;;5073797;28;20390;-46
2024/01/09 11:42:40;;;;;;;4.63;0.80;;;;;;;;;;5073509;28;20064;-44
2024/01/09 11:45:11;;;;;;;5.63;0.60;;;;;;;;;;5073674;28;20104;-44
2024/01/09 11:47:43;;;;;;;1.73;0.70;;;;;;;;;;5073586;28;20555;-46
2024/01/09 11:50:11;;;;;;;4.40;0.63;;;;;;;;;;5073669;28;20024;-44
2024/01/09 11:52:39;;;;;;;1.83;0.60;;;;;;;;;;5073539;28;20037;-44
2024/01/09 11:55:07;;;;;;;6.30;0.75;;;;;;;;;;5073481;28;20028;-45
2024/01/09 11:57:39;;;;;;;6.47;0.90;;;;;;;;;;5073502;28;20040;-44
2024/01/09 12:00:07;;;;;;;4.68;0.80;;;;;;;;;;5073414;28;20056;-48
2024/01/09 12:02:36;;;;;;;2.55;0.93;;;;;;;;;;5073298;28;20039;-46
2024/01/09 12:05:06;;;;;;;3.30;0.80;;;;;;;;;;5073365;28;20382;-46
2024/01/09 12:07:34;;;;;;;6.25;1.10;;;;;;;;;;5073370;28;20096;-44
2024/01/09 12:10:05;;;;;;;6.55;0.80;;;;;;;;;;5073455;28;20016;-46
2024/01/09 12:12:32;;;;;;;7.35;0.75;;;;;;;;;;5073345;28;20052;-43
2024/01/09 12:14:59;;;;;;;7.78;1.02;;;;;;;;;;5073396;28;20723;-46
2024/01/09 12:17:33;;;;;;;4.32;1.00;;;;;;;;;;5073251;28;20432;-45
2024/01/09 12:20:01;;;;;;;6.35;0.80;;;;;;;;;;5073177;28;20063;-44
2024/01/09 12:22:28;;;;;;;4.95;1.30;;;;;;;;;;5071873;28;20021;-44
2024/01/09 12:24:55;;;;;;;2.83;1.17;;;;;;;;;;4978320;28;2710976;-45
2024/01/09 12:27:24;;;;;;;4.22;0.80;;;;;;;;;;5074304;28;20040;-45
2024/01/09 12:29:54;;;;;;;3.35;0.80;;;;;;;;;;5074199;28;20029;-46
2024/01/09 12:32:21;;;;;;;7.03;0.80;;;;;;;;;;5073605;28;20029;-46
2024/01/09 12:34:48;;;;;;;2.53;0.55;;;;;;;;;;5074066;28;20375;-44
2024/01/09 12:37:15;;;;;;;4.32;0.70;;;;;;;;;;5073975;28;20444;-44
2024/01/09 12:39:42;;;;;;;6.22;0.70;;;;;;;;;;5073952;28;20106;-44
2024/01/09 12:42:11;;;;;;;5.47;0.80;;;;;;;;;;5073844;28;20039;-44
2024/01/09 12:44:39;;;;;;;1.98;0.70;;;;;;;;;;5073905;28;20037;-45
2024/01/09 12:47:10;;;;;;;4.70;0.75;;;;;;;;;;5073831;28;20491;-46
2024/01/09 12:49:54;;;;;;;4.35;0.82;;;;;;;;;;5073758;28;20078;-44
2024/01/09 12:52:22;;;;;;;4.88;0.73;;;;;;;;;;5073548;28;20029;-43
2024/01/09 12:54:49;;;;;;;1.80;0.80;;;;;;;;;;5073773;28;20086;-47
2024/01/09 12:57:16;;;;;;;5.28;0.75;;;;;;;;;;5073634;28;20486;-44
2024/01/09 12:59:47;;;;;;;2.05;0.57;;;;;;;;;;5073697;28;21127;-45
2024/01/09 13:02:14;;;;;;;1.50;0.57;;;;;;;;;;5073355;28;20044;-44
2024/01/09 13:04:41;;;;;;;2.80;0.60;;;;;;;;;;5073601;28;20039;-44
2024/01/09 13:07:08;;;;;;;4.03;0.93;;;;;;;;;;5072140;28;20048;-44
2024/01/09 13:09:35;;;;;;;4.40;0.80;;;;;;;;;;5073409;28;20090;-47
2024/01/09 13:12:02;;;;;;;10.45;1.25;;;;;;;;;;5067041;28;20502;-46
2024/01/09 13:14:29;;;;;;;6.10;0.88;;;;;;;;;;5062404;28;20133;-44
2024/01/09 13:16:57;;;;;;;8.35;0.98;;;;;;;;;;5063772;28;20032;-50
2024/01/09 13:19:25;;;;;;;4.45;0.93;;;;;;;;;;5062577;28;20047;-43
2024/01/09 13:21:52;;;;;;;7.65;0.90;;;;;;;;;;5053717;28;20071;-45
2024/01/09 13:24:19;;;;;;;4.25;1.05;;;;;;;;;;5069819;28;20028;-43
2024/01/09 13:26:47;;;;;;;6.88;0.63;;;;;;;;;;5060492;28;20059;-44
2024/01/09 13:29:14;;;;;;;2.17;0.60;;;;;;;;;;5072630;28;20088;-43
2024/01/09 13:31:41;;;;;;;6.68;0.85;;;;;;;;;;5072960;28;20028;-45
2024/01/09 13:34:08;;;;;;;5.70;0.88;;;;;;;;;;5070052;28;20035;-43
2024/01/09 13:36:35;;;;;;;3.33;0.80;;;;;;;;;;5072051;28;20043;-45
2024/01/09 13:39:03;;;;;;;4.70;0.93;;;;;;;;;;5069571;28;20683;-43
2024/01/09 13:41:30;;;;;;;6.05;0.70;;;;;;;;;;5064205;28;20226;-43
2024/01/09 13:43:57;;;;;;;4.88;0.77;;;;;;;;;;5071312;28;20434;-46
2024/01/09 13:46:24;;;;;;;4.72;0.75;;;;;;;;;;5072464;28;20032;-45
2024/01/09 13:48:52;;;;;;;5.00;0.77;;;;;;;;;;5072264;28;20424;-43
2024/01/09 13:51:21;;;;;;;4.85;0.90;;;;;;;;;;5060555;28;20075;-43
2024/01/09 13:53:51;;;;;;;7.53;0.85;;;;;;;;;;5066110;28;20033;-43
2024/01/09 13:56:18;;;;;;;3.17;0.73;;;;;;;;;;5065824;28;20129;-43
2024/01/09 13:58:45;;;;;;;7.88;0.57;;;;;;;;;;5064187;28;20478;-43
2024/01/09 14:01:12;;;;;;;23.65;2.78;;;;;;;;;;5067592;28;20035;-48
2024/01/09 14:03:40;;;;;;;13.68;1.33;;;;;;;;;;5068365;28;20043;-43
2024/01/09 14:06:07;;;;;;;11.15;1.25;;;;;;;;;;5070433;28;20560;-44
2024/01/09 14:08:34;;;;;;;24.33;2.17;;;;;;;;;;5065834;28;20421;-43
2024/01/09 14:11:01;;;;;;;11.82;1.77;;;;;;;;;;5070416;28;20434;-44
2024/01/09 14:13:28;;;;;;;6.68;1.30;;;;;;;;;;5072174;28;20075;-46
2024/01/09 14:15:56;;;;;;;7.60;1.40;;;;;;;;;;5071997;28;20044;-46
2024/01/09 14:18:23;;;;;;;8.40;1.30;;;;;;;;;;5072140;28;20082;-44
2024/01/09 14:20:50;;;;;;;7.10;1.10;;;;;;;;;;5072254;28;20028;-44
2024/01/09 14:23:17;;;;;;;10.40;1.55;;;;;;;;;;5071794;28;20033;-46
2024/01/09 14:25:44;;;;;;;9.38;1.60;;;;;;;;;;5071915;28;20048;-44
2024/01/09 14:28:11;;;;;;;9.35;1.33;;;;;;;;;;5071982;28;20040;-45
2024/01/09 14:30:38;;;;;;;6.55;0.70;;;;;;;;;;5071931;28;20078;-43
2024/01/09 14:33:05;;;;;;;5.32;0.70;;;;;;;;;;5072096;28;20436;-43
2024/01/09 14:35:33;;;;;;;4.05;1.02;;;;;;;;;;5072134;28;20051;-45
2024/01/09 14:38:00;;;;;;;8.43;1.10;;;;;;;;;;5071811;28;20043;-44
2024/01/09 14:40:28;;;;;;;3.47;0.73;;;;;;;;;;5071574;28;20040;-45